Time;durP1;ratioP1;P1;durP2;ratioP2;P2;SDS_P1;SDS_P2;PMS_P1;PMS_P2;Temp;Humidity;BMP_temperature;BMP_pressure;BME280_temperature;BME280_humidity;BME280_pressure;Samples;Min_cycle;Max_cycle;Signal;HPM_P1;HPM_P2
2022/03/20 00:01:43;;;;;;;17.20;8.50;;;;;;;1.37;36.04;102210.44;5070789;28;20463;-62
2022/03/20 00:04:08;;;;;;;19.20;8.85;;;;;;;1.40;35.93;102210.44;5072016;28;20367;-62
2022/03/20 00:06:34;;;;;;;21.05;8.80;;;;;;;1.19;35.82;102168.28;5072106;28;20055;-62
2022/03/20 00:08:59;;;;;;;16.40;8.45;;;;;;;1.31;35.95;102199.03;5071504;28;20350;-62
2022/03/20 00:11:27;;;;;;;16.92;8.27;;;;;;;1.38;36.07;102201.63;5071462;28;20391;-62
2022/03/20 00:13:54;;;;;;;18.92;8.50;;;;;;;1.41;35.78;102213.94;5072064;28;20038;-62
2022/03/20 00:16:21;;;;;;;18.58;8.40;;;;;;;1.40;36.33;102217.47;5071939;28;20066;-62
2022/03/20 00:18:47;;;;;;;22.38;9.55;;;;;;;1.40;36.01;102217.47;5053691;28;20454;-61
2022/03/20 00:21:13;;;;;;;20.00;8.82;;;;;;;1.38;35.81;102212.19;5071416;28;20154;-62
2022/03/20 00:23:39;;;;;;;17.15;8.57;;;;;;;1.23;36.08;102193.75;5071293;28;20111;-62
2022/03/20 00:26:04;;;;;;;21.98;8.32;;;;;;;1.28;36.40;102197.25;5071510;28;20029;-62
2022/03/20 00:28:30;;;;;;;21.95;8.82;;;;;;;1.25;36.26;102186.72;5071192;28;20111;-62
2022/03/20 00:30:56;;;;;;;21.65;8.48;;;;;;;1.26;36.34;102197.28;5071033;28;20044;-61
2022/03/20 00:33:23;;;;;;;19.15;8.82;;;;;;;1.21;36.50;102183.22;5070841;28;20485;-62
2022/03/20 00:35:48;;;;;;;17.17;8.57;;;;;;;1.26;37.10;102202.56;5070996;28;20036;-62
2022/03/20 00:38:14;;;;;;;24.35;9.02;;;;;;;1.21;37.09;102193.78;5071635;28;20463;-62
2022/03/20 00:40:40;;;;;;;19.10;8.18;;;;;;;1.00;37.10;102160.41;5070782;28;20064;-62
2022/03/20 00:43:06;;;;;;;18.50;9.20;;;;;;;1.19;37.41;102199.94;5071199;28;20396;-61
2022/03/20 00:45:33;;;;;;;18.48;8.90;;;;;;;1.19;37.19;102200.81;5070760;28;20090;-61
2022/03/20 00:47:59;;;;;;;16.00;8.27;;;;;;;1.17;37.66;102196.44;5070739;28;20028;-63
2022/03/20 00:50:25;;;;;;;16.35;8.38;;;;;;;1.15;37.89;102191.16;5071210;28;20098;-61
2022/03/20 00:52:50;;;;;;;17.63;7.95;;;;;;;1.11;37.72;102190.31;5070767;28;20091;-61
2022/03/20 00:55:16;;;;;;;17.15;8.95;;;;;;;1.06;37.61;102186.78;5071211;28;20327;-61
2022/03/20 00:57:42;;;;;;;20.52;9.88;;;;;;;1.11;37.95;102194.69;5071241;28;20029;-62
2022/03/20 01:00:08;;;;;;;19.00;8.60;;;;;;;1.05;37.80;102181.53;5070805;28;20376;-64
2022/03/20 01:02:42;;;;;;;18.83;7.88;;;;;;;1.13;37.88;102190.28;5070767;28;20041;-63
2022/03/20 01:05:08;;;;;;;21.42;9.50;;;;;;;1.06;37.98;102188.56;5071174;28;20510;-62
2022/03/20 01:07:35;;;;;;;17.45;8.85;;;;;;;1.04;38.15;102182.41;5052971;28;20033;-62
2022/03/20 01:10:04;;;;;;;17.58;8.85;;;;;;;1.00;38.02;102179.78;5070483;28;20167;-62
2022/03/20 01:12:30;;;;;;;20.58;8.15;;;;;;;1.02;37.87;102195.59;5070587;28;20056;-62
2022/03/20 01:14:55;;;;;;;16.60;8.63;;;;;;;1.02;38.19;102194.72;5070882;28;20075;-62
2022/03/20 01:17:21;;;;;;;18.70;8.27;;;;;;;1.00;38.54;102192.97;5070808;28;20025;-62
2022/03/20 01:19:47;;;;;;;15.07;8.55;;;;;;;0.91;38.34;102174.50;5070815;28;20024;-63
2022/03/20 01:22:12;;;;;;;15.68;8.45;;;;;;;0.95;38.52;102181.53;5071101;28;20024;-63
2022/03/20 01:24:38;;;;;;;18.23;8.73;;;;;;;0.93;38.49;102180.66;5070799;28;20449;-63
2022/03/20 01:27:04;;;;;;;20.10;9.05;;;;;;;0.87;38.77;102177.16;5070418;28;20024;-63
2022/03/20 01:29:29;;;;;;;18.75;8.82;;;;;;;0.87;38.74;102183.31;5070543;28;20063;-63
2022/03/20 01:31:55;;;;;;;16.50;8.73;;;;;;;0.82;38.57;102188.59;5070882;28;20480;-63
2022/03/20 01:34:21;;;;;;;19.95;9.32;;;;;;;0.78;39.15;102193.88;5070718;28;20037;-63
2022/03/20 01:36:47;;;;;;;18.27;8.70;;;;;;;0.62;38.95;102159.63;5070447;28;20090;-63
2022/03/20 01:39:12;;;;;;;18.35;7.65;;;;;;;0.74;39.58;102195.63;5070700;28;20070;-64
2022/03/20 01:41:38;;;;;;;18.80;8.70;;;;;;;0.71;39.30;102182.47;5070697;28;20035;-64
2022/03/20 01:44:04;;;;;;;18.67;8.95;;;;;;;0.56;39.72;102159.63;5070465;28;20037;-65
2022/03/20 01:46:33;;;;;;;16.88;9.07;;;;;;;0.69;40.00;102177.19;5070176;28;20416;-64
2022/03/20 01:48:59;;;;;;;14.65;8.50;;;;;;;0.66;39.92;102185.09;5070552;28;20064;-62
2022/03/20 01:54:13;;;;;;;18.75;8.90;;;;;;;0.40;40.21;102125.38;5070268;28;20111;-66
2022/03/20 01:56:45;;;;;;;17.25;8.82;;;;;;;0.63;40.22;102169.28;5069486;28;20100;-64
2022/03/20 01:59:11;;;;;;;20.60;9.80;;;;;;;0.57;40.16;102150.84;5070500;28;21051;-64
2022/03/20 02:01:36;;;;;;;22.77;8.95;;;;;;;0.56;40.28;102157.00;5070796;28;20101;-63
2022/03/20 02:04:02;;;;;;;21.80;9.57;;;;;;;0.51;40.46;102154.38;5070265;28;20066;-63
2022/03/20 02:06:27;;;;;;;18.58;9.02;;;;;;;0.50;40.95;102154.38;5070085;28;20066;-65
2022/03/20 02:08:55;;;;;;;17.33;9.05;;;;;;;0.31;40.77;102120.13;5070487;28;20458;-61
2022/03/20 02:11:23;;;;;;;18.90;9.27;;;;;;;0.46;40.81;102153.50;5070775;28;20024;-63
2022/03/20 02:13:49;;;;;;;18.25;9.18;;;;;;;0.42;41.29;102146.47;5070594;28;20040;-64
2022/03/20 02:16:15;;;;;;;18.60;9.13;;;;;;;0.39;41.19;102142.06;5069865;28;20032;-64
2022/03/20 02:18:40;;;;;;;18.33;8.88;;;;;;;0.37;41.03;102141.19;5070614;28;20060;-64
2022/03/20 02:21:06;;;;;;;18.63;9.25;;;;;;;0.38;41.20;102147.38;5052586;28;20029;-64
2022/03/20 02:23:34;;;;;;;19.20;10.35;;;;;;;0.37;41.57;102138.56;5052051;28;20028;-63
2022/03/20 02:26:00;;;;;;;21.10;9.55;;;;;;;0.37;41.62;102135.06;5072077;28;20516;-62
2022/03/20 02:28:26;;;;;;;19.80;8.63;;;;;;;0.35;41.91;102137.69;5055628;28;20173;-63
2022/03/20 02:30:52;;;;;;;17.65;9.10;;;;;;;0.32;41.51;102121.00;5073688;28;20115;-62
2022/03/20 02:33:19;;;;;;;21.25;9.18;;;;;;;0.32;41.98;102135.06;5073498;28;20051;-60
2022/03/20 02:35:45;;;;;;;16.55;9.15;;;;;;;0.28;41.57;102125.41;5073164;28;20072;-63
2022/03/20 02:38:13;;;;;;;19.55;9.27;;;;;;;0.29;42.01;102132.44;5073460;28;20064;-63
2022/03/20 02:40:38;;;;;;;23.40;9.60;;;;;;;0.26;42.00;102132.44;5073251;28;20438;-62
2022/03/20 02:43:06;;;;;;;19.98;9.60;;;;;;;0.25;42.41;102125.41;5073098;28;20161;-63
2022/03/20 02:45:32;;;;;;;17.92;8.98;;;;;;;0.26;42.45;102127.16;5073687;28;20072;-63
2022/03/20 02:47:59;;;;;;;20.65;9.20;;;;;;;0.24;42.14;102135.06;5072831;28;20028;-62
2022/03/20 02:50:28;;;;;;;19.67;9.38;;;;;;;0.23;42.52;102125.41;5072716;28;20492;-60
2022/03/20 02:52:58;;;;;;;17.88;9.27;;;;;;;0.26;42.25;102124.53;5073853;28;20470;-63
2022/03/20 02:55:25;;;;;;;20.60;8.70;;;;;;;0.23;42.98;102121.88;5073204;28;20039;-62
2022/03/20 02:57:52;;;;;;;21.38;10.02;;;;;;;0.24;42.83;102126.25;5073248;28;20036;-62
2022/03/20 03:00:21;;;;;;;17.52;8.98;;;;;;;0.22;42.64;102121.00;5073445;28;20029;-64
2022/03/20 03:02:48;;;;;;;18.83;9.57;;;;;;;0.22;42.51;102117.47;5073083;28;20493;-63
2022/03/20 03:05:18;;;;;;;20.55;9.73;;;;;;;0.23;42.83;102125.41;5072459;28;20059;-63
2022/03/20 03:13:17;;;;;;;16.75;9.30;;;;;;;0.11;43.61;102113.09;5072589;28;20436;-65
2022/03/20 03:15:43;;;;;;;23.33;9.90;;;;;;;0.13;43.36;102116.63;5072833;28;20036;-63
2022/03/20 03:18:09;;;;;;;22.35;10.00;;;;;;;0.13;43.62;102124.53;5073246;28;20077;-63
2022/03/20 03:20:36;;;;;;;16.08;8.98;;;;;;;0.12;43.91;102120.13;5072684;28;20028;-62
2022/03/20 03:23:02;;;;;;;20.40;9.65;;;;;;;0.05;44.14;102097.31;5072393;28;20032;-64
2022/03/20 03:25:28;;;;;;;20.30;10.00;;;;;;;0.09;44.28;102109.59;5072791;28;20025;-60
2022/03/20 03:27:53;;;;;;;19.30;9.85;;;;;;;0.08;43.76;102106.94;5073320;28;20024;-63
2022/03/20 03:30:20;;;;;;;21.85;9.52;;;;;;;0.10;44.19;102113.09;5072076;28;20501;-62
2022/03/20 03:32:46;;;;;;;17.35;8.98;;;;;;;0.04;44.63;102106.09;5072384;28;20524;-63
2022/03/20 03:37:59;;;;;;;16.67;8.77;;;;;;;0.17;44.09;102122.78;5054903;28;20115;-62
2022/03/20 03:40:24;;;;;;;18.17;9.10;;;;;;;0.13;44.36;102107.84;5072324;28;20076;-62
2022/03/20 03:42:50;;;;;;;16.55;9.75;;;;;;;0.21;43.97;102113.09;5054227;28;20036;-62
2022/03/20 03:45:16;;;;;;;24.65;9.30;;;;;;;0.21;44.39;102113.09;5054953;28;20033;-62
2022/03/20 03:47:41;;;;;;;19.08;9.27;;;;;;;0.27;44.13;102111.34;5072522;28;20032;-63
2022/03/20 03:50:08;;;;;;;18.02;9.75;;;;;;;0.25;44.24;102085.88;5072086;28;20127;-61
2022/03/20 03:52:34;;;;;;;18.48;9.68;;;;;;;0.35;44.44;102100.78;5071807;28;20111;-61
2022/03/20 03:54:59;;;;;;;17.67;9.55;;;;;;;0.41;44.44;102113.09;5072225;28;20455;-64
2022/03/20 03:57:25;;;;;;;18.65;9.40;;;;;;;0.48;44.29;102117.47;5072458;28;20410;-62
2022/03/20 03:59:50;;;;;;;16.60;8.82;;;;;;;0.50;43.99;102099.88;5071758;28;20028;-61
2022/03/20 04:02:16;;;;;;;19.33;8.55;;;;;;;0.63;44.11;102106.00;5071748;28;20032;-62
2022/03/20 04:04:42;;;;;;;21.40;9.77;;;;;;;0.74;44.14;102111.25;5072185;28;20463;-62
2022/03/20 04:07:09;;;;;;;19.20;9.15;;;;;;;0.78;44.06;102102.44;5054300;28;20445;-64
2022/03/20 04:09:35;;;;;;;22.98;9.82;;;;;;;0.94;43.66;102113.81;5053515;28;20036;-63
2022/03/20 04:12:03;;;;;;;20.88;10.10;;;;;;;0.78;43.97;102052.34;5053168;28;20024;-62
2022/03/20 04:14:29;;;;;;;20.85;9.52;;;;;;;1.18;43.67;102090.00;5037290;28;20059;-61
2022/03/20 04:16:55;;;;;;;17.63;9.20;;;;;;;1.94;41.64;102077.19;5071925;28;20028;-62
2022/03/20 04:19:21;;;;;;;16.10;8.68;;;;;;;3.63;38.81;102089.38;5071523;28;20025;-63
2022/03/20 04:21:48;;;;;;;19.88;9.77;;;;;;;5.36;35.33;102071.13;5071498;28;20512;-62
2022/03/20 04:24:14;;;;;;;17.50;9.85;;;;;;;6.85;32.66;102080.66;5071329;28;20405;-63
2022/03/20 04:26:40;;;;;;;20.77;10.82;;;;;;;8.08;30.58;102080.41;5071155;28;20486;-62
2022/03/20 04:29:05;;;;;;;16.50;9.90;;;;;;;9.10;28.79;102083.06;5053958;28;20026;-63
2022/03/20 04:31:31;;;;;;;20.95;9.80;;;;;;;9.88;27.75;102067.50;5070966;28;20039;-63
2022/03/20 04:33:57;;;;;;;19.88;9.95;;;;;;;10.72;26.57;102072.84;5071795;28;20035;-62
2022/03/20 04:36:24;;;;;;;23.88;10.07;;;;;;;11.54;25.22;102064.59;5070892;28;20044;-63
2022/03/20 04:38:51;;;;;;;18.38;10.77;;;;;;;12.38;24.39;102065.78;5053163;28;20487;-62
2022/03/20 04:41:18;;;;;;;22.85;11.18;;;;;;;13.22;23.41;102062.16;5071031;28;20456;-64
2022/03/20 04:43:44;;;;;;;16.15;10.48;;;;;;;14.03;22.29;102071.06;5070166;28;20024;-62
2022/03/20 04:46:11;;;;;;;17.05;10.95;;;;;;;14.71;21.21;102068.81;5070512;28;20024;-64
2022/03/20 04:59:33;;;;;;;15.38;11.20;;;;;;;18.49;17.13;102060.53;5070763;28;20039;-64
2022/03/20 05:01:58;;;;;;;20.05;11.52;;;;;;;18.86;16.55;102028.75;5070768;28;20038;-63
2022/03/20 05:04:24;;;;;;;17.98;11.43;;;;;;;19.75;16.06;102063.13;5071152;28;20077;-66
2022/03/20 05:06:50;;;;;;;15.82;11.30;;;;;;;20.19;15.26;102044.91;5070427;28;20051;-64
2022/03/20 05:14:44;;;;;;;14.35;11.15;;;;;;;22.06;13.69;102044.59;5067985;28;20098;-62
2022/03/20 05:17:10;;;;;;;17.88;11.65;;;;;;;22.55;13.28;102038.22;5052648;28;20021;-62
2022/03/20 05:19:37;;;;;;;19.38;11.15;;;;;;;23.22;13.00;102048.97;5070586;28;20447;-61
2022/03/20 05:22:11;;;;;;;17.90;11.32;;;;;;;23.84;13.02;102050.97;5070945;28;20476;-64
2022/03/20 05:24:38;;;;;;;15.27;10.85;;;;;;;24.28;12.09;102039.22;5052769;28;20074;-67
2022/03/20 05:27:05;;;;;;;13.18;10.40;;;;;;;24.61;11.54;102041.31;5052360;28;20124;-57
2022/03/20 05:29:31;;;;;;;13.57;10.88;;;;;;;25.13;11.14;102039.50;5070862;28;20465;-65
2022/03/20 05:31:58;;;;;;;14.45;11.10;;;;;;;25.58;11.36;102024.53;5071203;28;20048;-66
2022/03/20 05:34:24;;;;;;;13.73;10.30;;;;;;;25.97;10.53;102025.75;5070768;28;20442;-65
2022/03/20 05:36:51;;;;;;;15.35;11.35;;;;;;;26.55;10.27;102019.31;5050142;28;20032;-63
2022/03/20 05:39:17;;;;;;;15.60;11.00;;;;;;;26.93;9.98;102011.28;5052586;28;20037;-65
2022/03/20 05:41:51;;;;;;;15.32;10.55;;;;;;;27.45;9.41;101996.00;5070923;28;20086;-65
2022/03/20 05:44:22;;;;;;;16.67;10.83;;;;;;;28.25;9.26;102011.38;5054386;28;20108;-62
2022/03/20 05:46:49;;;;;;;15.90;10.48;;;;;;;28.47;8.92;102006.81;5070013;28;20032;-66
2022/03/20 05:49:18;;;;;;;16.23;10.10;;;;;;;28.90;8.96;102004.22;5070410;28;20476;-68
2022/03/20 05:51:46;;;;;;;16.02;10.68;;;;;;;29.47;8.24;102003.63;5070515;28;20090;-65
2022/03/20 05:54:13;;;;;;;15.07;10.52;;;;;;;29.83;8.17;101999.88;5070491;28;20470;-67
2022/03/20 05:59:23;;;;;;;13.68;10.55;;;;;;;30.87;7.90;101999.31;5071790;28;20028;-66
2022/03/20 06:01:51;;;;;;;13.90;10.07;;;;;;;31.32;7.37;101996.03;5074786;28;20029;-67
2022/03/20 06:04:18;;;;;;;15.07;9.43;;;;;;;31.60;7.40;101990.34;5074356;28;20115;-67
2022/03/20 06:06:44;;;;;;;12.32;9.45;;;;;;;32.01;6.76;101988.44;5055811;28;20044;-67
2022/03/20 06:09:10;;;;;;;15.85;9.63;;;;;;;32.40;6.74;101983.03;5074012;28;20034;-65
2022/03/20 06:11:36;;;;;;;15.10;9.90;;;;;;;32.67;6.82;101979.31;5074237;28;20427;-63
2022/03/20 06:14:03;;;;;;;15.63;9.85;;;;;;;33.11;6.04;101983.16;5074001;28;20032;-67
2022/03/20 06:16:29;;;;;;;10.93;9.80;;;;;;;33.45;6.03;101978.28;5073961;28;20100;-68
2022/03/20 06:18:55;;;;;;;15.20;10.00;;;;;;;33.83;6.04;101970.91;5073578;28;20036;-67
2022/03/20 06:21:22;;;;;;;16.58;10.30;;;;;;;33.95;6.19;101976.56;5073600;28;20125;-67
2022/03/20 06:23:49;;;;;;;14.60;9.77;;;;;;;34.08;5.61;101958.94;5056033;28;20035;-67
2022/03/20 06:26:16;;;;;;;11.32;8.77;;;;;;;34.33;5.85;101963.56;5073514;28;20028;-67
2022/03/20 06:28:43;;;;;;;13.63;9.55;;;;;;;34.27;5.70;101936.69;5073505;28;20059;-69
2022/03/20 06:31:10;;;;;;;13.15;8.95;;;;;;;34.62;5.54;101953.59;5073338;28;20033;-67
2022/03/20 06:33:37;;;;;;;11.25;9.45;;;;;;;34.62;5.50;101938.84;5073756;28;20092;-69
2022/03/20 06:36:04;;;;;;;11.98;9.07;;;;;;;34.95;5.24;101948.63;5073837;28;20093;-68
2022/03/20 06:38:30;;;;;;;15.30;9.55;;;;;;;35.21;4.98;101946.59;5073112;28;20398;-68
2022/03/20 06:40:56;;;;;;;13.38;9.80;;;;;;;35.41;4.89;101954.59;5038245;28;20473;-69
2022/03/20 06:43:23;;;;;;;11.18;9.10;;;;;;;35.42;5.16;101928.47;5073560;28;20354;-69
2022/03/20 06:45:50;;;;;;;11.25;9.68;;;;;;;35.79;5.01;101932.97;5072839;28;20044;-70
2022/03/20 06:48:16;;;;;;;13.65;8.68;;;;;;;36.29;4.57;101944.69;5072874;28;20024;-69
2022/03/20 06:50:42;;;;;;;13.63;9.52;;;;;;;36.68;4.77;101946.91;5055548;28;20028;-69
2022/03/20 06:53:07;;;;;;;12.85;8.80;;;;;;;36.85;4.73;101938.56;5055650;28;20032;-71
2022/03/20 06:55:33;;;;;;;11.27;8.60;;;;;;;37.09;4.30;101936.53;5073015;28;20043;-71
2022/03/20 06:57:59;;;;;;;13.38;8.77;;;;;;;37.15;4.42;101949.47;5073088;28;20090;-70
2022/03/20 07:00:28;;;;;;;10.32;8.82;;;;;;;37.58;4.26;101935.97;5073592;28;20063;-71
2022/03/20 07:02:56;;;;;;;12.68;8.65;;;;;;;37.90;4.19;101935.34;5072908;28;20035;-71
2022/03/20 07:05:22;;;;;;;9.35;8.38;;;;;;;38.02;4.08;101929.66;5072855;28;20128;-70
2022/03/20 07:07:51;;;;;;;12.88;8.73;;;;;;;38.05;4.08;101939.47;5055231;28;20497;-70
2022/03/20 07:10:24;;;;;;;12.10;9.18;;;;;;;38.82;4.50;101935.91;5073058;28;20629;-70
2022/03/20 07:12:50;;;;;;;13.32;8.00;;;;;;;38.66;4.27;101932.09;5072756;28;20123;-68
2022/03/20 07:15:19;;;;;;;9.35;8.38;;;;;;;39.42;4.15;101928.38;5073094;28;20029;-69
2022/03/20 07:17:47;;;;;;;9.18;8.27;;;;;;;39.16;3.80;101924.50;5073249;28;20029;-69
2022/03/20 07:20:16;;;;;;;16.35;9.00;;;;;;;38.93;4.06;101915.34;5072843;28;20032;-69
2022/03/20 07:22:43;;;;;;;10.80;8.32;;;;;;;38.69;3.99;101886.78;5054462;28;20047;-70
2022/03/20 07:30:38;;;;;;;12.23;8.95;;;;;;;38.95;3.98;101890.72;5072545;28;20058;-67
2022/03/20 07:33:03;;;;;;;12.65;8.27;;;;;;;38.86;4.15;101892.31;5072051;28;20067;-68
2022/03/20 07:35:30;;;;;;;11.15;9.10;;;;;;;38.99;3.76;101893.84;5072873;28;20083;-69
2022/03/20 07:37:56;;;;;;;10.75;8.23;;;;;;;38.87;4.03;101882.78;5072516;28;20020;-69
2022/03/20 07:40:22;;;;;;;11.45;9.05;;;;;;;38.48;4.24;101890.22;5054379;28;20508;-69
2022/03/20 07:42:47;;;;;;;10.40;8.68;;;;;;;38.19;4.37;101882.06;5072072;28;20028;-69
2022/03/20 07:45:13;;;;;;;10.73;8.30;;;;;;;37.68;4.39;101856.19;5072808;28;20046;-69
2022/03/20 07:47:38;;;;;;;12.00;8.30;;;;;;;37.48;4.90;101879.91;5073088;28;20029;-70
2022/03/20 07:50:06;;;;;;;9.18;8.15;;;;;;;37.22;4.86;101887.88;5072148;28;20063;-68
2022/03/20 07:52:35;;;;;;;9.98;7.85;;;;;;;37.11;4.49;101872.91;5053844;28;20111;-68
2022/03/20 07:55:01;;;;;;;12.70;7.93;;;;;;;36.82;5.47;101894.41;5054318;28;20031;-68
2022/03/20 07:57:31;;;;;;;11.60;8.35;;;;;;;36.33;5.65;101887.31;5072573;28;20652;-69
2022/03/20 07:59:58;;;;;;;10.02;7.97;;;;;;;35.24;6.11;101870.06;5053622;28;20544;-70
2022/03/20 08:02:23;;;;;;;13.93;7.88;;;;;;;33.41;6.90;101873.41;5071289;28;20420;-68
2022/03/20 08:04:51;;;;;;;12.40;7.50;;;;;;;30.88;8.16;101882.09;5071968;28;20031;-68
2022/03/20 08:07:19;;;;;;;12.25;8.10;;;;;;;27.98;10.28;101874.13;5054090;28;20068;-69
2022/03/20 08:09:45;;;;;;;11.00;7.68;;;;;;;25.10;12.23;101848.00;5071321;28;20051;-69
2022/03/20 08:12:11;;;;;;;13.10;7.75;;;;;;;22.73;14.41;101858.94;5071652;28;20039;-69
2022/03/20 08:14:37;;;;;;;14.65;8.55;;;;;;;20.66;15.98;101855.78;5071327;28;20021;-70
2022/03/20 08:17:06;;;;;;;11.95;7.78;;;;;;;19.02;17.77;101860.91;5071240;28;20129;-69
2022/03/20 08:19:32;;;;;;;11.52;7.78;;;;;;;17.51;19.66;101842.28;5071619;28;20028;-69
2022/03/20 08:21:59;;;;;;;11.65;8.00;;;;;;;16.34;21.02;101832.00;5070885;28;20480;-69
2022/03/20 08:24:25;;;;;;;10.93;7.10;;;;;;;15.65;22.04;101835.09;5071102;28;20078;-68
2022/03/20 08:26:51;;;;;;;15.02;9.10;;;;;;;15.02;22.99;101818.69;5071045;28;20028;-69
2022/03/20 08:29:16;;;;;;;12.88;7.55;;;;;;;14.48;23.20;101818.59;5071467;28;20115;-68
2022/03/20 08:31:45;;;;;;;11.88;8.18;;;;;;;14.14;24.05;101815.38;5053653;28;20389;-69
2022/03/20 08:34:13;;;;;;;15.63;8.20;;;;;;;13.77;24.82;101802.41;5071276;28;20036;-69
2022/03/20 08:36:39;;;;;;;15.93;8.30;;;;;;;13.62;24.83;101819.50;5071194;28;20081;-69
2022/03/20 08:39:05;;;;;;;14.18;7.97;;;;;;;13.22;25.58;101793.19;5071585;28;20040;-70
2022/03/20 08:41:32;;;;;;;13.23;7.65;;;;;;;13.10;25.34;101818.13;5070741;28;20025;-69
2022/03/20 08:43:57;;;;;;;13.57;7.07;;;;;;;12.78;26.05;101806.50;5071169;28;20020;-68
2022/03/20 08:46:23;;;;;;;11.70;7.60;;;;;;;12.42;26.59;101761.97;5071357;28;20089;-71
2022/03/20 08:48:48;;;;;;;10.10;6.95;;;;;;;12.59;25.98;101808.53;5053158;28;20075;-70
2022/03/20 08:51:14;;;;;;;10.60;6.97;;;;;;;12.49;25.67;101803.66;5070858;28;20033;-70
2022/03/20 08:53:40;;;;;;;10.10;6.35;;;;;;;12.36;25.90;101808.00;5071232;28;20055;-69
2022/03/20 08:56:06;;;;;;;12.43;6.45;;;;;;;11.96;25.85;101757.38;5070848;28;20386;-69
2022/03/20 08:58:32;;;;;;;13.27;6.28;;;;;;;12.02;26.11;101791.97;5070382;28;20047;-67
2022/03/20 09:00:57;;;;;;;11.93;5.80;;;;;;;11.95;26.23;101779.81;5070338;28;20172;-68
2022/03/20 09:03:24;;;;;;;10.77;5.65;;;;;;;12.00;26.53;101801.88;5071311;28;20058;-69
2022/03/20 09:05:49;;;;;;;11.15;6.38;;;;;;;11.94;26.91;101795.97;5053022;28;20024;-69
2022/03/20 09:08:15;;;;;;;10.65;6.53;;;;;;;11.98;26.80;101794.84;5070832;28;20040;-68
2022/03/20 09:10:41;;;;;;;12.55;6.93;;;;;;;11.96;27.14;101788.72;5053032;28;20509;-68
2022/03/20 09:13:06;;;;;;;12.07;6.90;;;;;;;11.95;27.10;101779.81;5070785;28;20029;-69
2022/03/20 09:15:32;;;;;;;11.95;6.63;;;;;;;12.06;26.75;101779.25;5070853;28;20029;-71
2022/03/20 09:20:45;;;;;;;10.48;6.22;;;;;;;11.91;26.27;101736.16;5071094;28;20043;-69
2022/03/20 09:23:13;;;;;;;15.48;5.60;;;;;;;11.92;26.40;101761.16;5071359;28;20096;-70
2022/03/20 09:25:39;;;;;;;9.43;6.10;;;;;;;11.71;26.64;101766.78;5071108;28;20040;-71
2022/03/20 09:28:07;;;;;;;9.75;5.78;;;;;;;11.66;26.99;101773.34;5052942;28;20485;-71
2022/03/20 09:30:34;;;;;;;8.45;5.68;;;;;;;11.70;27.15;101762.38;5053258;28;20028;-73
2022/03/20 09:33:04;;;;;;;10.35;5.93;;;;;;;11.76;27.05;101753.09;5053010;28;20052;-70
2022/03/20 09:35:32;;;;;;;9.85;6.28;;;;;;;11.89;27.24;101762.22;5043244;28;20048;-69
2022/03/20 09:37:58;;;;;;;12.52;5.82;;;;;;;11.91;26.36;101746.00;5076944;28;20037;-69
2022/03/20 09:40:24;;;;;;;8.50;5.40;;;;;;;11.94;26.40;101736.94;5059326;28;20032;-70
2022/03/20 09:42:51;;;;;;;9.43;5.00;;;;;;;12.06;26.35;101739.81;5077598;28;20138;-67
2022/03/20 09:45:18;;;;;;;9.40;4.85;;;;;;;12.11;24.71;101739.56;5077502;28;20036;-68
2022/03/20 09:47:44;;;;;;;7.28;4.60;;;;;;;12.09;24.80;101732.53;5077334;28;20035;-70
2022/03/20 09:50:11;;;;;;;9.05;4.65;;;;;;;12.06;24.89;101722.88;5077255;28;20466;-68
2022/03/20 09:52:38;;;;;;;11.45;4.97;;;;;;;12.02;24.90;101718.59;5077660;28;20537;-70
2022/03/20 09:55:06;;;;;;;12.15;4.15;;;;;;;12.02;24.16;101716.78;5077024;28;20115;-67
2022/03/20 09:57:31;;;;;;;6.78;3.83;;;;;;;12.02;24.09;101716.78;5076606;28;20036;-68
2022/03/20 10:00:01;;;;;;;11.95;4.07;;;;;;;12.06;23.51;101709.44;5059188;28;20444;-69
2022/03/20 10:02:28;;;;;;;5.53;3.50;;;;;;;12.09;24.01;101703.91;5077118;28;20039;-69
2022/03/20 10:04:59;;;;;;;12.35;4.20;;;;;;;12.16;23.88;101699.00;5058716;28;20032;-68
2022/03/20 10:07:30;;;;;;;9.27;3.80;;;;;;;12.24;23.33;101691.41;5076970;28;20040;-68
2022/03/20 10:10:12;;;;;;;6.75;3.28;;;;;;;12.46;22.53;101696.38;5076875;28;20082;-68
2022/03/20 10:12:44;;;;;;;9.50;3.13;;;;;;;12.45;22.48;101678.53;5076860;28;20106;-68
2022/03/20 10:15:26;;;;;;;5.55;2.60;;;;;;;12.42;21.26;101677.84;5077024;28;20040;-69
2022/03/20 10:18:15;;;;;;;7.82;2.33;;;;;;;12.52;20.89;101680.84;5076554;28;20033;-68
2022/03/20 10:20:52;;;;;;;4.30;2.50;;;;;;;12.50;20.44;101675.56;5059389;28;20033;-69
2022/03/20 10:23:36;;;;;;;4.45;2.08;;;;;;;12.70;19.99;101676.22;5077637;28;20031;-71
2022/03/20 10:26:07;;;;;;;4.22;1.95;;;;;;;12.74;19.07;101673.22;5077056;28;20059;-67
2022/03/20 10:28:47;;;;;;;6.20;1.40;;;;;;;12.76;18.96;101660.56;5077026;28;20129;-69
2022/03/20 10:31:20;;;;;;;4.38;1.42;;;;;;;12.83;18.64;101665.59;5076664;28;20162;-68
2022/03/20 10:34:06;;;;;;;2.88;1.42;;;;;;;12.88;18.85;101664.31;5043490;28;20040;-68
2022/03/20 10:36:36;;;;;;;7.05;1.40;;;;;;;12.70;18.06;101649.34;5076917;28;20033;-69
2022/03/20 10:39:08;;;;;;;4.47;1.88;;;;;;;12.28;18.30;101603.44;5059187;28;20135;-68
2022/03/20 10:41:34;;;;;;;6.90;1.48;;;;;;;12.47;18.53;101644.38;5077411;28;20466;-70
2022/03/20 10:44:01;;;;;;;2.53;1.48;;;;;;;12.48;17.72;101629.97;5077022;28;20032;-68
2022/03/20 10:46:32;;;;;;;4.50;1.70;;;;;;;12.57;18.21;101625.88;5073640;28;20032;-67
2022/03/20 10:49:03;;;;;;;4.50;1.50;;;;;;;12.64;18.17;101623.69;5073774;28;20035;-69
2022/03/20 10:51:38;;;;;;;6.25;1.60;;;;;;;12.62;18.21;101623.78;5074107;28;20105;-68
2022/03/20 10:54:21;;;;;;;3.33;1.60;;;;;;;12.69;18.50;101610.00;5055254;28;20501;-69
2022/03/20 10:56:56;;;;;;;4.03;1.33;;;;;;;12.70;18.34;101612.56;5055803;28;20074;-70
2022/03/20 10:59:22;;;;;;;6.72;1.50;;;;;;;12.58;18.80;101602.59;5074104;28;20068;-67
2022/03/20 11:01:49;;;;;;;4.40;1.80;;;;;;;12.62;18.74;101594.22;5073377;28;20040;-70
2022/03/20 11:04:16;;;;;;;3.67;1.60;;;;;;;12.67;18.19;101591.25;5073609;28;20028;-70
2022/03/20 11:06:46;;;;;;;3.92;1.63;;;;;;;12.55;18.44;101549.88;5073615;28;20035;-68
2022/03/20 11:09:12;;;;;;;8.20;1.50;;;;;;;12.74;18.34;101587.22;5073776;28;20462;-67
2022/03/20 11:11:48;;;;;;;5.25;1.80;;;;;;;12.78;18.22;101587.91;5072714;28;20040;-68
2022/03/20 11:14:20;;;;;;;2.50;1.75;;;;;;;12.72;18.94;101578.41;5072732;28;20033;-66
2022/03/20 11:16:51;;;;;;;7.65;1.67;;;;;;;12.73;18.88;101572.06;5055354;28;20070;-68
2022/03/20 11:19:23;;;;;;;6.25;2.08;;;;;;;12.66;19.15;101581.47;5073138;28;20078;-67
2022/03/20 11:21:52;;;;;;;4.65;1.40;;;;;;;12.52;19.34;101573.38;5072704;28;20115;-68
2022/03/20 11:24:18;;;;;;;2.30;1.52;;;;;;;12.40;19.74;101575.88;5072489;28;20025;-67
2022/03/20 11:26:49;;;;;;;3.17;1.75;;;;;;;12.38;20.02;101580.47;5055126;28;20035;-68
2022/03/20 11:29:15;;;;;;;2.28;1.40;;;;;;;12.19;20.31;101572.66;5072897;28;20038;-66
2022/03/20 11:31:41;;;;;;;4.60;1.50;;;;;;;12.13;20.29;101576.56;5072168;28;20421;-66
2022/03/20 11:34:08;;;;;;;2.90;1.67;;;;;;;12.09;20.75;101577.72;5071991;28;20041;-65
2022/03/20 11:37:01;;;;;;;3.65;2.17;;;;;;;12.30;20.42;101582.75;5072647;28;20444;-66
2022/03/20 11:39:27;;;;;;;3.30;1.70;;;;;;;12.21;21.47;101578.78;5037906;28;20401;-66
2022/03/20 11:42:21;;;;;;;5.63;2.10;;;;;;;12.32;21.26;101575.47;5054495;28;20036;-67
2022/03/20 11:44:52;;;;;;;4.57;1.88;;;;;;;12.25;21.26;101569.59;5072348;28;20078;-68
2022/03/20 11:47:21;;;;;;;4.45;1.63;;;;;;;12.10;21.66;101573.19;5072475;28;20099;-67
2022/03/20 11:50:05;;;;;;;4.00;1.75;;;;;;;12.11;21.87;101572.22;5072107;28;20119;-67
2022/03/20 11:52:49;;;;;;;3.75;1.83;;;;;;;12.08;22.05;101570.59;5071612;28;20067;-69
2022/03/20 11:55:40;;;;;;;9.85;2.30;;;;;;;12.09;22.20;101569.66;5071905;28;20896;-68
2022/03/20 11:58:08;;;;;;;3.38;1.55;;;;;;;11.99;22.97;101558.56;5071788;28;20561;-68
2022/03/20 12:00:39;;;;;;;4.05;1.92;;;;;;;11.98;22.86;101564.00;5071730;28;20039;-66
2022/03/20 12:03:13;;;;;;;5.32;2.10;;;;;;;12.04;22.79;101566.34;5071758;28;20039;-67